Terminal Aerodrome Forecast
Issued by NWS

Home | Current Version | Previous Version | Text Only | Print | Product List | Glossary On
Versions: 1 2 3 4 5 6 7 8 9 10 11 12 13 14 15 16 17
000
FTUS42 KMHX 271024 AAA
TAFPGV
TAF AMD
KPGV 271024Z 2710/2806 20005KT P6SM SCT006
      TEMPO 2710/2712 BKN005
     FM271300 21008KT P6SM BKN020
     FM271500 21009G18KT P6SM SCT050 BKN250
     FM280000 19008KT P6SM BKN150
      AMD LTD TO CLD VIS AND WIND=

USA.gov is the U.S. government's official web portal to all federal, state and local government web resources and services.